Time;durP1;ratioP1;P1;durP2;ratioP2;P2;SDS_P1;SDS_P2;PMS_P1;PMS_P2;Temp;Humidity;BMP_temperature;BMP_pressure;BME280_temperature;BME280_humidity;BME280_pressure;Samples;Min_cycle;Max_cycle;Signal;HPM_P1;HPM_P2
2023/12/03 00:01:19;;;;;;;0.20;0.20;;;;;;;17.29;47.46;93622.56;5043244;28;20576;-72
2023/12/03 00:03:47;;;;;;;0.20;0.20;;;;;;;17.33;47.66;93628.81;5039247;28;20207;-71
2023/12/03 00:06:14;;;;;;;1.52;0.90;;;;;;;17.34;47.66;93619.44;5042304;28;20640;-73
2023/12/03 00:08:41;;;;;;;0.30;0.30;;;;;;;17.27;47.56;93619.44;5046309;28;20201;-74
2023/12/03 00:11:08;;;;;;;2.70;1.30;;;;;;;17.36;47.76;93628.78;5042763;28;20232;-70
2023/12/03 00:13:35;;;;;;;1.23;0.52;;;;;;;17.25;48.52;93649.16;5041352;28;20228;-74
2023/12/03 00:16:02;;;;;;;4.45;0.60;;;;;;;17.29;48.06;93634.28;5040198;28;20604;-73
2023/12/03 00:18:29;;;;;;;5.72;0.73;;;;;;;17.24;48.46;93648.38;5042641;28;20719;-73
2023/12/03 00:20:57;;;;;;;0.20;0.20;;;;;;;17.31;48.42;93658.53;5045637;28;20207;-72
2023/12/03 00:23:24;;;;;;;0.10;0.10;;;;;;;17.21;48.54;93640.19;5047446;28;20196;-74
2023/12/03 00:25:51;;;;;;;0.40;0.40;;;;;;;17.27;48.72;93652.28;5042847;28;20335;-73
2023/12/03 00:28:18;;;;;;;1.75;0.30;;;;;;;17.19;48.86;93646.06;5044548;28;20547;-74
2023/12/03 00:30:45;;;;;;;0.30;0.30;;;;;;;17.25;48.69;93666.34;5048329;28;20215;-72
2023/12/03 00:33:12;;;;;;;2.33;0.80;;;;;;;17.20;49.04;93635.88;5049288;28;20231;-72
2023/12/03 00:35:38;;;;;;;1.08;0.32;;;;;;;17.05;49.35;93646.84;5047338;28;20208;-72
2023/12/03 00:38:07;;;;;;;1.10;0.77;;;;;;;17.12;49.24;93650.72;5049210;28;20214;-73
2023/12/03 00:40:33;;;;;;;2.85;0.40;;;;;;;17.05;49.26;93632.38;5049818;28;21476;-72
2023/12/03 00:43:00;;;;;;;1.17;0.45;;;;;;;17.04;49.38;93658.19;5046939;28;20262;-73
2023/12/03 00:45:27;;;;;;;0.20;0.20;;;;;;;17.00;49.72;93644.50;5045917;28;20212;-74
2023/12/03 00:47:53;;;;;;;3.05;1.25;;;;;;;16.90;49.76;93667.16;5051171;28;20204;-72
2023/12/03 00:50:20;;;;;;;0.20;0.20;;;;;;;16.93;49.96;93669.13;5047767;28;20207;-75
2023/12/03 00:52:47;;;;;;;2.05;0.50;;;;;;;16.95;49.84;93691.38;5051617;28;20223;-75
2023/12/03 00:55:15;;;;;;;3.03;1.85;;;;;;;16.95;50.52;93688.66;5050264;28;20616;-75
2023/12/03 00:57:42;;;;;;;0.60;0.60;;;;;;;16.98;50.01;93676.94;5049148;28;20674;-76
2023/12/03 01:00:10;;;;;;;0.40;0.40;;;;;;;16.98;50.26;93674.19;5045703;28;20207;-75
2023/12/03 01:02:37;;;;;;;0.10;0.10;;;;;;;16.85;50.56;93686.69;5049988;28;20243;-76
2023/12/03 01:05:04;;;;;;;0.68;0.35;;;;;;;16.96;50.25;93682.00;5047103;28;20208;-75
2023/12/03 01:07:31;;;;;;;0.20;0.20;;;;;;;17.01;50.47;93689.84;5050765;28;20546;-74
2023/12/03 01:09:57;;;;;;;0.28;0.28;;;;;;;16.94;50.37;93684.38;5048180;28;20245;-75
2023/12/03 01:12:24;;;;;;;0.20;0.20;;;;;;;17.00;50.28;93704.69;5046997;28;20626;-71
2023/12/03 01:14:51;;;;;;;1.67;0.65;;;;;;;17.00;50.45;93687.50;5044443;28;20234;-72
2023/12/03 01:17:18;;;;;;;1.65;0.50;;;;;;;16.94;50.54;93695.31;5049091;28;20213;-71
2023/12/03 01:19:45;;;;;;;0.40;0.40;;;;;;;16.99;50.27;93686.69;5043232;28;20204;-71
2023/12/03 01:22:11;;;;;;;0.20;0.20;;;;;;;17.01;50.39;93689.84;5043097;28;20204;-71
2023/12/03 01:24:38;;;;;;;0.20;0.20;;;;;;;17.00;50.56;93703.91;5043755;28;21446;-71
2023/12/03 01:27:06;;;;;;;0.73;0.30;;;;;;;17.09;50.15;93706.25;5043327;28;20210;-72
2023/12/03 01:29:34;;;;;;;0.20;0.20;;;;;;;17.07;50.43;93703.91;5043754;28;20208;-73
2023/12/03 01:32:01;;;;;;;0.15;0.15;;;;;;;17.05;50.34;93684.38;5044065;28;20211;-71
2023/12/03 01:34:27;;;;;;;2.05;0.60;;;;;;;17.05;50.41;93698.84;5044267;28;20207;-70
2023/12/03 01:36:54;;;;;;;0.65;0.57;;;;;;;17.12;50.74;93708.19;5046355;28;20203;-69
2023/12/03 01:39:21;;;;;;;0.20;0.20;;;;;;;17.08;50.53;93707.44;5049258;28;20614;-70
2023/12/03 01:41:48;;;;;;;0.20;0.20;;;;;;;17.12;50.57;93694.53;5043459;28;20219;-71
2023/12/03 01:44:15;;;;;;;0.88;0.88;;;;;;;17.16;50.36;93689.84;5045247;28;20200;-71
2023/12/03 01:46:43;;;;;;;0.70;0.60;;;;;;;17.22;50.25;93693.75;5043196;28;20204;-71
2023/12/03 01:49:10;;;;;;;1.60;0.77;;;;;;;17.23;50.08;93687.06;5043561;28;20211;-70
2023/12/03 01:51:37;;;;;;;7.57;0.98;;;;;;;17.17;50.28;93696.88;5041349;28;20295;-71
2023/12/03 01:54:04;;;;;;;0.10;0.10;;;;;;;17.20;50.36;93679.66;5042023;28;20232;-71
2023/12/03 01:56:30;;;;;;;3.10;2.13;;;;;;;17.09;50.77;93678.88;5041447;28;20215;-72
2023/12/03 01:58:57;;;;;;;0.80;0.50;;;;;;;16.98;50.89;93676.94;5045049;28;20621;-72
2023/12/03 02:01:24;;;;;;;0.47;0.38;;;;;;;17.08;50.78;93693.75;5043883;28;20689;-70
2023/12/03 02:04:11;;;;;;;2.90;1.63;;;;;;;17.09;50.77;93684.34;5046953;28;20200;-71
2023/12/03 02:06:38;;;;;;;1.33;0.50;;;;;;;17.10;50.60;93691.38;5045831;28;21084;-69
2023/12/03 02:09:06;;;;;;;0.20;0.20;;;;;;;17.12;50.96;93702.72;5046734;28;20195;-72
2023/12/03 02:11:34;;;;;;;0.20;0.20;;;;;;;17.18;50.57;93692.97;5042937;28;20196;-71
2023/12/03 02:14:02;;;;;;;0.20;0.20;;;;;;;17.18;50.79;93685.53;5045987;28;20224;-73
2023/12/03 02:16:30;;;;;;;1.35;0.82;;;;;;;17.17;50.56;93685.94;5046835;28;20622;-73
2023/12/03 02:18:58;;;;;;;0.20;0.20;;;;;;;17.18;50.32;93693.75;5043823;28;20208;-71
2023/12/03 02:21:26;;;;;;;0.20;0.20;;;;;;;17.15;50.52;93678.09;5045836;28;20208;-70
2023/12/03 02:23:54;;;;;;;0.20;0.20;;;;;;;17.22;50.20;93671.84;5046376;28;20200;-71
2023/12/03 02:26:21;;;;;;;0.20;0.20;;;;;;;17.09;50.68;93676.13;5040865;28;20549;-70
2023/12/03 02:28:47;;;;;;;0.98;0.85;;;;;;;17.10;50.68;93680.44;5041862;28;20204;-70
2023/12/03 02:31:15;;;;;;;0.13;0.13;;;;;;;17.10;50.41;93696.84;5047787;28;20697;-72
2023/12/03 02:33:43;;;;;;;0.20;0.20;;;;;;;17.13;50.54;93685.13;5047875;28;20755;-71
2023/12/03 02:36:10;;;;;;;0.68;0.68;;;;;;;17.19;50.32;93678.09;5046180;28;20643;-71
2023/12/03 02:38:37;;;;;;;0.20;0.20;;;;;;;17.21;50.29;93686.72;5046532;28;20250;-71
2023/12/03 02:41:06;;;;;;;0.20;0.20;;;;;;;17.33;50.03;93694.53;5046413;28;20205;-70
2023/12/03 02:43:33;;;;;;;0.43;0.43;;;;;;;17.24;50.22;93691.38;5045236;28;20262;-71
2023/12/03 02:45:59;;;;;;;6.20;1.90;;;;;;;17.10;50.60;93681.22;5044368;28;20205;-71
2023/12/03 02:48:26;;;;;;;2.50;0.75;;;;;;;17.08;50.97;93682.81;5042475;28;20266;-70
2023/12/03 02:50:53;;;;;;;6.32;0.70;;;;;;;17.00;51.11;93685.53;5044810;28;20253;-71
2023/12/03 02:53:19;;;;;;;0.40;0.40;;;;;;;16.93;51.38;93688.28;5045015;28;20223;-70
2023/12/03 02:55:46;;;;;;;0.40;0.40;;;;;;;16.90;51.69;93683.59;5044240;28;20215;-69
2023/12/03 02:58:14;;;;;;;0.10;0.10;;;;;;;16.91;51.79;93700.78;5042844;28;20590;-71
2023/12/03 03:00:41;;;;;;;0.55;0.55;;;;;;;16.79;52.21;93710.16;5044214;28;20224;-71
2023/12/03 03:03:08;;;;;;;0.20;0.20;;;;;;;16.91;51.75;93700.78;5043492;28;20237;-70
2023/12/03 03:05:34;;;;;;;3.72;1.25;;;;;;;16.82;52.11;93708.56;5046348;28;20200;-69
2023/12/03 03:08:01;;;;;;;0.20;0.20;;;;;;;16.93;52.02;93715.63;5044068;28;20607;-72
2023/12/03 03:10:28;;;;;;;1.55;0.98;;;;;;;16.83;52.55;93701.94;5042410;28;20246;-71
2023/12/03 03:12:55;;;;;;;8.65;0.93;;;;;;;16.81;52.51;93705.06;5044083;28;20223;-70
2023/12/03 03:15:23;;;;;;;0.82;0.43;;;;;;;16.88;52.45;93726.97;5044217;28;20203;-74
2023/12/03 03:17:50;;;;;;;0.90;0.60;;;;;;;16.90;52.32;93724.63;5041968;28;20207;-75
2023/12/03 03:20:21;;;;;;;2.67;0.70;;;;;;;16.85;52.79;93710.53;5045951;28;20639;-76
2023/12/03 03:22:48;;;;;;;1.67;0.77;;;;;;;16.79;52.88;93704.69;5046313;28;20287;-75
2023/12/03 03:25:15;;;;;;;0.55;0.45;;;;;;;16.80;53.21;93719.94;5043660;28;20245;-75
2023/12/03 03:27:42;;;;;;;4.45;1.40;;;;;;;16.76;53.42;93716.41;5043713;28;20215;-75
2023/12/03 03:30:09;;;;;;;0.30;0.30;;;;;;;16.78;53.43;93725.00;5044885;28;20204;-76
2023/12/03 03:32:38;;;;;;;1.15;0.70;;;;;;;16.76;53.30;93727.34;5041335;28;20262;-75
2023/12/03 03:35:05;;;;;;;6.03;1.95;;;;;;;16.78;53.43;93735.16;5044697;28;20566;-75
2023/12/03 03:37:32;;;;;;;4.43;0.73;;;;;;;16.79;53.16;93732.03;5042143;28;20253;-74
2023/12/03 03:39:58;;;;;;;1.02;1.02;;;;;;;16.80;53.16;93733.59;5048414;28;20203;-75
2023/12/03 03:42:25;;;;;;;0.10;0.10;;;;;;;16.85;53.19;93757.81;5043340;28;20624;-74
2023/12/03 03:44:52;;;;;;;0.10;0.10;;;;;;;16.85;53.39;93763.28;5041622;28;20262;-75
2023/12/03 03:47:18;;;;;;;0.40;0.40;;;;;;;16.83;53.38;93760.16;5044414;28;20204;-75
2023/12/03 03:49:47;;;;;;;2.60;0.57;;;;;;;16.85;53.29;93760.56;5044119;28;20208;-73
2023/12/03 03:52:13;;;;;;;0.10;0.10;;;;;;;16.84;53.70;93780.09;5041227;28;20266;-74
2023/12/03 03:54:41;;;;;;;0.17;0.17;;;;;;;16.90;53.39;93798.50;5041509;28;20227;-75
2023/12/03 03:57:08;;;;;;;0.20;0.20;;;;;;;16.77;54.55;93812.91;5044308;28;20203;-74
2023/12/03 03:59:35;;;;;;;1.60;1.58;;;;;;;16.04;57.26;93823.09;5043656;28;20630;-76
2023/12/03 04:02:01;;;;;;;0.35;0.35;;;;;;;15.60;58.80;93822.03;5042259;28;20247;-75
2023/12/03 04:04:28;;;;;;;0.35;0.35;;;;;;;15.30;59.98;93824.09;5048693;28;20196;-75
2023/12/03 04:06:56;;;;;;;2.08;0.73;;;;;;;15.07;60.76;93820.75;5048172;28;20204;-76
2023/12/03 04:09:23;;;;;;;0.20;0.20;;;;;;;14.90;61.72;93831.13;5047987;28;20568;-75
2023/12/03 04:11:50;;;;;;;0.50;0.50;;;;;;;14.74;62.03;93833.31;5057804;28;20234;-78
2023/12/03 04:14:18;;;;;;;7.50;3.60;;;;;;;14.64;62.79;93819.53;5059990;28;20215;-77
2023/12/03 04:16:45;;;;;;;0.30;0.30;;;;;;;14.66;62.71;93822.69;5058290;28;20226;-78
2023/12/03 04:19:12;;;;;;;0.30;0.30;;;;;;;14.67;62.83;93835.94;5057142;28;20200;-78
2023/12/03 04:21:39;;;;;;;0.30;0.30;;;;;;;14.76;62.38;93833.69;5050827;28;20238;-72
2023/12/03 04:24:08;;;;;;;0.57;0.57;;;;;;;14.89;62.13;93837.75;5043819;28;20203;-72
2023/12/03 04:26:34;;;;;;;0.30;0.30;;;;;;;14.87;62.40;93842.78;5046348;28;20204;-72
2023/12/03 04:29:01;;;;;;;0.30;0.30;;;;;;;14.80;62.47;93839.19;5044674;28;20281;-72
2023/12/03 04:31:28;;;;;;;0.20;0.20;;;;;;;14.81;62.79;93852.44;5049313;28;20222;-73
2023/12/03 04:33:56;;;;;;;0.20;0.20;;;;;;;14.77;62.89;93857.06;5045464;28;20224;-74
2023/12/03 04:36:24;;;;;;;1.38;1.27;;;;;;;14.73;62.99;93872.63;5047407;28;20207;-74
2023/12/03 04:38:51;;;;;;;0.30;0.30;;;;;;;14.57;63.50;93878.28;5047133;28;20212;-73
2023/12/03 04:41:20;;;;;;;0.20;0.20;;;;;;;14.53;63.65;93868.47;5046570;28;20211;-72
2023/12/03 04:43:47;;;;;;;0.13;0.13;;;;;;;14.49;63.58;93873.09;5046133;28;20207;-72
2023/12/03 04:46:14;;;;;;;0.98;0.98;;;;;;;14.46;64.04;93879.31;5046118;28;20642;-72
2023/12/03 04:48:42;;;;;;;0.20;0.20;;;;;;;14.46;64.35;93896.44;5044580;28;20212;-73
2023/12/03 04:51:11;;;;;;;0.40;0.40;;;;;;;14.27;65.25;93893.03;5047212;28;20552;-74
2023/12/03 04:53:38;;;;;;;1.27;1.17;;;;;;;14.06;65.90;93907.13;5044765;28;20224;-72
2023/12/03 04:56:06;;;;;;;0.20;0.20;;;;;;;14.09;66.55;93931.69;5048710;28;20203;-72
2023/12/03 04:58:34;;;;;;;0.82;0.82;;;;;;;13.85;67.60;93929.38;5047022;28;20208;-73
2023/12/03 05:01:02;;;;;;;0.20;0.20;;;;;;;13.78;67.61;93940.16;5046677;28;20243;-73
2023/12/03 05:03:29;;;;;;;0.30;0.30;;;;;;;13.78;68.60;93949.09;5044752;28;20195;-75
2023/12/03 05:05:55;;;;;;;0.20;0.20;;;;;;;13.75;69.35;93949.03;5047072;28;20200;-76
2023/12/03 05:08:22;;;;;;;0.20;0.20;;;;;;;13.60;70.18;93941.78;5045347;28;20204;-76
2023/12/03 05:10:49;;;;;;;0.20;0.20;;;;;;;13.38;71.91;93962.41;5045230;28;20265;-76
2023/12/03 05:13:16;;;;;;;0.30;0.30;;;;;;;13.26;73.38;93960.59;5047299;28;20516;-76
2023/12/03 05:15:44;;;;;;;0.25;0.25;;;;;;;13.12;75.03;93979.34;5049725;28;20261;-76
2023/12/03 05:18:11;;;;;;;0.63;0.63;;;;;;;13.04;76.28;93983.09;5052425;28;20204;-77
2023/12/03 05:20:38;;;;;;;0.20;0.20;;;;;;;12.94;78.03;93986.38;5043329;28;20600;-78
2023/12/03 05:23:04;;;;;;;0.13;0.13;;;;;;;12.95;79.00;93977.88;5058350;28;20257;-77
2023/12/03 05:25:31;;;;;;;1.40;1.17;;;;;;;12.87;80.41;93975.34;5061894;28;20196;-78
2023/12/03 05:27:58;;;;;;;0.20;0.20;;;;;;;12.90;81.15;93959.13;5047714;28;20204;-78
2023/12/03 05:30:25;;;;;;;0.20;0.20;;;;;;;12.66;83.03;93967.56;5046096;28;20611;-77
2023/12/03 05:32:53;;;;;;;0.20;0.20;;;;;;;12.69;83.17;93970.38;5044726;28;20207;-78
2023/12/03 05:35:20;;;;;;;0.20;0.20;;;;;;;12.66;83.49;93981.94;5047367;28;20322;-78
2023/12/03 05:37:47;;;;;;;0.50;0.50;;;;;;;12.64;83.15;93978.78;5046666;28;20203;-78
2023/12/03 05:40:14;;;;;;;0.60;0.60;;;;;;;12.41;83.92;93986.84;5043553;28;20210;-77
2023/12/03 05:42:40;;;;;;;0.20;0.20;;;;;;;12.36;83.87;93999.91;5043483;28;20208;-79
2023/12/03 05:45:08;;;;;;;0.50;0.50;;;;;;;12.44;83.61;94001.63;5045614;28;20230;-79
2023/12/03 05:47:36;;;;;;;0.20;0.20;;;;;;;12.55;82.80;94008.09;5045200;28;20218;-75
2023/12/03 05:50:05;;;;;;;0.22;0.22;;;;;;;12.64;82.06;94008.69;5045134;28;20222;-76
2023/12/03 05:52:32;;;;;;;0.20;0.20;;;;;;;12.76;82.04;94008.53;5043717;28;21252;-77
2023/12/03 05:54:59;;;;;;;0.20;0.20;;;;;;;12.66;81.59;94008.31;5046313;28;20224;-77
2023/12/03 05:57:26;;;;;;;0.20;0.20;;;;;;;12.85;81.06;94016.47;5046572;28;20520;-77
2023/12/03 05:59:53;;;;;;;0.20;0.20;;;;;;;12.78;80.82;94014.41;5048284;28;20345;-77
2023/12/03 06:02:20;;;;;;;0.30;0.30;;;;;;;12.82;81.83;94007.13;5045083;28;20732;-76
2023/12/03 06:04:47;;;;;;;0.20;0.20;;;;;;;12.67;82.49;94021.56;5046486;28;20677;-75
2023/12/03 06:07:15;;;;;;;0.55;0.55;;;;;;;13.50;85.87;94025.59;5054150;28;20214;-76
2023/12/03 06:09:42;;;;;;;0.30;0.30;;;;;;;13.20;82.98;94024.63;5056620;28;20204;-75
2023/12/03 06:12:09;;;;;;;0.20;0.20;;;;;;;13.46;85.12;94032.09;5057181;28;20211;-76
2023/12/03 06:14:36;;;;;;;0.30;0.30;;;;;;;13.53;81.84;94029.50;5044529;28;20231;-75
2023/12/03 06:17:02;;;;;;;0.50;0.50;;;;;;;13.60;80.09;94029.66;5061661;28;20302;-75
2023/12/03 06:19:29;;;;;;;0.20;0.20;;;;;;;13.51;80.10;94043.50;5058293;28;20261;-74
2023/12/03 06:21:57;;;;;;;0.40;0.40;;;;;;;13.55;80.02;94034.59;5051702;28;20269;-73
2023/12/03 06:24:26;;;;;;;0.30;0.30;;;;;;;13.46;81.13;94046.50;5052803;28;20221;-80
2023/12/03 06:26:54;;;;;;;0.28;0.28;;;;;;;13.60;81.36;94056.09;5051128;28;20614;-73
2023/12/03 06:29:21;;;;;;;0.40;0.40;;;;;;;13.71;81.10;94052.41;5045501;28;20196;-71
2023/12/03 06:31:48;;;;;;;0.20;0.20;;;;;;;13.74;80.86;94048.19;5047802;28;20200;-71
2023/12/03 06:34:16;;;;;;;0.30;0.30;;;;;;;13.70;81.14;94050.81;5043842;28;20242;-72
2023/12/03 06:36:43;;;;;;;0.20;0.20;;;;;;;13.58;82.15;94064.59;5047835;28;20208;-73
2023/12/03 06:39:10;;;;;;;0.20;0.20;;;;;;;13.56;83.12;94068.81;5048189;28;20203;-73
2023/12/03 06:41:38;;;;;;;0.20;0.20;;;;;;;13.43;83.48;94068.97;5043672;28;20287;-73
2023/12/03 06:44:05;;;;;;;0.10;0.10;;;;;;;13.52;83.94;94066.84;5041760;28;20647;-71
2023/12/03 06:46:39;;;;;;;0.20;0.20;;;;;;;13.56;84.96;94077.00;5043771;28;20239;-73
2023/12/03 06:49:06;;;;;;;1.55;0.80;;;;;;;13.68;85.62;94085.00;5042884;28;20233;-73
2023/12/03 06:51:33;;;;;;;0.38;0.38;;;;;;;13.70;85.65;94093.59;5045767;28;20208;-73
2023/12/03 06:54:01;;;;;;;1.50;0.68;;;;;;;13.51;87.69;94092.47;5040188;28;20211;-73
2023/12/03 06:56:28;;;;;;;1.52;0.50;;;;;;;13.23;90.32;94091.91;5042431;28;20584;-72
2023/12/03 06:58:56;;;;;;;0.30;0.30;;;;;;;13.38;91.48;94099.22;5047985;28;20597;-72
2023/12/03 07:01:23;;;;;;;0.30;0.30;;;;;;;13.22;92.32;94089.53;5045339;28;20262;-73
2023/12/03 07:03:50;;;;;;;0.20;0.20;;;;;;;13.23;93.30;94102.78;5042556;28;20286;-72
2023/12/03 07:06:17;;;;;;;0.20;0.20;;;;;;;13.24;93.12;94109.81;5044209;28;20207;-71
2023/12/03 07:08:44;;;;;;;0.20;0.20;;;;;;;13.35;94.49;94110.81;5045977;28;20276;-75
2023/12/03 07:11:12;;;;;;;0.30;0.30;;;;;;;13.31;94.57;94112.66;5042500;28;20207;-74
2023/12/03 07:13:41;;;;;;;0.10;0.10;;;;;;;13.08;96.13;94122.63;5043609;28;20206;-74
2023/12/03 07:16:11;;;;;;;0.50;0.40;;;;;;;13.04;96.67;94121.75;5040516;28;20371;-75
2023/12/03 07:18:41;;;;;;;0.40;0.22;;;;;;;12.99;97.57;94124.75;5041714;28;20642;-73
2023/12/03 07:21:09;;;;;;;0.40;0.40;;;;;;;13.04;98.14;94127.19;5041553;28;20203;-74
2023/12/03 07:23:36;;;;;;;0.20;0.20;;;;;;;13.01;98.20;94131.41;5042538;28;20199;-73
2023/12/03 07:26:09;;;;;;;0.30;0.30;;;;;;;13.23;98.01;94129.19;5045900;28;20229;-73
2023/12/03 07:28:36;;;;;;;0.10;0.10;;;;;;;13.06;98.48;94130.34;5043513;28;20195;-74
2023/12/03 07:31:03;;;;;;;0.63;0.63;;;;;;;13.07;97.63;94138.16;5040678;28;20211;-72
2023/12/03 07:33:32;;;;;;;1.17;0.35;;;;;;;13.05;98.50;94140.44;5049221;28;20203;-73
2023/12/03 07:35:59;;;;;;;0.20;0.20;;;;;;;12.73;100.00;94150.56;5043113;28;20238;-72
2023/12/03 07:38:25;;;;;;;0.20;0.20;;;;;;;12.77;100.00;94156.88;5044147;28;20279;-71
2023/12/03 07:40:52;;;;;;;0.75;0.63;;;;;;;12.64;100.00;94147.25;5044993;28;20207;-70
2023/12/03 07:43:19;;;;;;;0.25;0.25;;;;;;;12.59;100.00;94158.38;5041026;28;20286;-74
2023/12/03 07:45:46;;;;;;;0.43;0.43;;;;;;;12.35;100.00;94161.28;5043852;28;20203;-71
2023/12/03 07:48:12;;;;;;;0.68;0.68;;;;;;;12.14;100.00;94174.31;5044148;28;20204;-71
2023/12/03 07:50:41;;;;;;;0.40;0.40;;;;;;;12.20;100.00;94179.13;5044553;28;20226;-73
2023/12/03 07:53:08;;;;;;;0.77;0.77;;;;;;;12.08;100.00;94193.56;5040141;28;20598;-75
2023/12/03 07:55:34;;;;;;;0.20;0.20;;;;;;;12.15;100.00;94194.91;5048777;28;20272;-76
2023/12/03 07:58:01;;;;;;;1.13;1.08;;;;;;;12.20;100.00;94200.84;5045992;28;20203;-72
2023/12/03 08:00:28;;;;;;;0.30;0.30;;;;;;;12.02;100.00;94205.84;5062737;28;20199;-75
2023/12/03 08:02:55;;;;;;;1.58;1.48;;;;;;;11.71;100.00;94216.53;5052579;28;20731;-75
2023/12/03 08:05:21;;;;;;;0.40;0.40;;;;;;;11.84;100.00;94211.91;5052088;28;20195;-76
2023/12/03 08:07:50;;;;;;;0.50;0.50;;;;;;;11.54;100.00;94224.97;5044187;28;20208;-76
2023/12/03 08:10:16;;;;;;;0.40;0.40;;;;;;;11.16;100.00;94231.59;5050733;28;20228;-77
2023/12/03 08:12:43;;;;;;;0.40;0.40;;;;;;;11.09;100.00;94241.41;5043652;28;20204;-75
2023/12/03 08:15:10;;;;;;;0.20;0.20;;;;;;;10.98;100.00;94246.50;5044320;28;20219;-76
2023/12/03 08:17:37;;;;;;;0.32;0.32;;;;;;;10.84;100.00;94257.66;5038193;28;20211;-76
2023/12/03 08:20:05;;;;;;;0.30;0.30;;;;;;;10.48;100.00;94255.72;5038346;28;20215;-74
2023/12/03 08:22:32;;;;;;;0.35;0.35;;;;;;;10.28;100.00;94257.34;5040262;28;20283;-76
2023/12/03 08:25:00;;;;;;;2.83;2.13;;;;;;;10.07;100.00;94255.78;5040158;28;20196;-75
2023/12/03 08:27:27;;;;;;;2.03;1.65;;;;;;;10.04;100.00;94273.47;5043278;28;20207;-76
2023/12/03 08:29:54;;;;;;;3.63;1.50;;;;;;;9.84;100.00;94275.06;5043046;28;20235;-76
2023/12/03 08:32:21;;;;;;;2.28;1.13;;;;;;;9.67;100.00;94267.13;5037689;28;20204;-74
2023/12/03 08:34:48;;;;;;;0.25;0.25;;;;;;;9.68;100.00;94276.81;5040668;28;20227;-76
2023/12/03 08:37:14;;;;;;;0.30;0.30;;;;;;;9.55;100.00;94286.00;5048316;28;20617;-76
2023/12/03 08:39:41;;;;;;;0.40;0.40;;;;;;;9.14;100.00;94279.41;5048181;28;20216;-76
2023/12/03 08:42:09;;;;;;;0.35;0.35;;;;;;;9.46;100.00;94279.84;5049186;28;20216;-77
2023/12/03 08:44:36;;;;;;;0.60;0.60;;;;;;;8.99;100.00;94288.06;5048178;28;20277;-77
2023/12/03 08:47:03;;;;;;;3.20;2.00;;;;;;;8.71;100.00;94298.53;5049028;28;20212;-75
2023/12/03 08:49:30;;;;;;;0.25;0.25;;;;;;;8.86;100.00;94294.50;5051920;28;20207;-75
2023/12/03 08:51:57;;;;;;;12.65;3.92;;;;;;;8.74;100.00;94297.09;5052962;28;20560;-75
2023/12/03 08:54:23;;;;;;;0.90;0.85;;;;;;;8.48;100.00;94294.44;5052258;28;20223;-77
2023/12/03 08:56:50;;;;;;;2.90;2.00;;;;;;;8.49;100.00;94296.84;5053015;28;20208;-77
2023/12/03 08:59:19;;;;;;;3.40;2.35;;;;;;;8.31;100.00;94308.78;5052887;28;20637;-76
2023/12/03 09:01:46;;;;;;;3.30;2.25;;;;;;;8.30;100.00;94317.97;5052968;28;20243;-77
2023/12/03 09:04:13;;;;;;;3.10;2.10;;;;;;;8.38;100.00;94317.19;5052178;28;20218;-74
2023/12/03 09:06:40;;;;;;;2.17;1.50;;;;;;;8.08;100.00;94318.16;5053281;28;20303;-76
2023/12/03 09:09:07;;;;;;;4.45;2.30;;;;;;;8.16;100.00;94320.06;5052033;28;20203;-76
2023/12/03 09:11:35;;;;;;;1.13;0.98;;;;;;;8.18;100.00;94307.06;5053013;28;20664;-76
2023/12/03 09:14:02;;;;;;;3.20;1.67;;;;;;;8.00;100.00;94316.25;5052019;28;20208;-75
2023/12/03 09:16:30;;;;;;;2.08;1.60;;;;;;;7.86;100.00;94335.31;5052464;28;20240;-75
2023/12/03 09:18:57;;;;;;;3.35;2.75;;;;;;;7.71;100.00;94341.97;5052548;28;20618;-77
2023/12/03 09:21:24;;;;;;;2.42;1.77;;;;;;;7.78;100.00;94342.31;5051384;28;20218;-77
2023/12/03 09:23:50;;;;;;;6.25;2.22;;;;;;;7.60;100.00;94359.56;5052086;28;20218;-78
2023/12/03 09:26:17;;;;;;;3.67;2.20;;;;;;;7.70;100.00;94345.75;5052125;28;20215;-77
2023/12/03 09:28:44;;;;;;;4.72;2.42;;;;;;;7.83;100.00;94352.91;5052586;28;20557;-78
2023/12/03 09:31:11;;;;;;;3.08;1.45;;;;;;;7.56;100.00;94345.13;5052503;28;20610;-77
2023/12/03 09:33:39;;;;;;;4.03;2.50;;;;;;;7.82;100.00;94348.63;5051891;28;20548;-76
2023/12/03 09:36:08;;;;;;;5.63;1.80;;;;;;;7.98;100.00;94350.84;5051854;28;20231;-79
2023/12/03 09:38:35;;;;;;;4.45;2.65;;;;;;;7.95;100.00;94354.16;5052248;28;20211;-77
2023/12/03 09:41:09;;;;;;;4.20;2.45;;;;;;;7.73;100.00;94349.75;5052444;28;20579;-77
2023/12/03 09:43:38;;;;;;;2.67;2.03;;;;;;;7.65;100.00;94356.72;5052002;28;20625;-77
2023/12/03 09:46:10;;;;;;;2.92;2.05;;;;;;;7.71;100.00;94344.66;5052162;28;20225;-79
2023/12/03 09:48:42;;;;;;;3.17;1.77;;;;;;;7.63;100.00;94345.47;5052011;28;20211;-78
2023/12/03 09:51:10;;;;;;;4.03;2.38;;;;;;;7.77;100.00;94362.28;5052079;28;20204;-76
2023/12/03 09:53:40;;;;;;;3.45;2.05;;;;;;;7.54;100.00;94366.19;5052019;28;20633;-77
2023/12/03 09:56:08;;;;;;;4.47;2.35;;;;;;;7.69;100.00;94354.97;5051481;28;20231;-78
2023/12/03 09:58:35;;;;;;;5.30;2.25;;;;;;;7.65;100.00;94359.41;5051619;28;20207;-78
2023/12/03 10:01:02;;;;;;;3.25;2.45;;;;;;;7.39;100.00;94362.03;5050290;28;20246;-77
2023/12/03 10:03:29;;;;;;;2.70;2.28;;;;;;;7.16;100.00;94367.84;5051289;28;20207;-76
2023/12/03 10:05:57;;;;;;;3.08;2.15;;;;;;;7.01;100.00;94377.13;5038098;28;20215;-74
2023/12/03 10:08:24;;;;;;;4.30;1.88;;;;;;;6.86;100.00;94391.81;5051201;28;20204;-78
2023/12/03 10:11:00;;;;;;;3.33;1.92;;;;;;;6.75;100.00;94396.66;5047340;28;20278;-79
2023/12/03 10:13:29;;;;;;;6.72;2.70;;;;;;;6.54;100.00;94395.59;5046302;28;20223;-77
2023/12/03 10:15:57;;;;;;;4.22;1.98;;;;;;;6.40;100.00;94401.06;5049278;28;20231;-76
2023/12/03 10:18:23;;;;;;;3.25;2.22;;;;;;;6.26;100.00;94400.31;5046820;28;20299;-75
2023/12/03 10:21:04;;;;;;;3.53;2.22;;;;;;;6.40;100.00;94406.44;5051564;28;20211;-74
2023/12/03 10:23:31;;;;;;;4.97;2.83;;;;;;;6.33;100.00;94411.44;5051436;28;20207;-72
2023/12/03 10:26:10;;;;;;;4.47;2.10;;;;;;;6.31;100.00;94407.47;5051486;28;20560;-73
2023/12/03 10:28:36;;;;;;;3.83;2.42;;;;;;;6.09;100.00;94410.94;5051134;28;20242;-75
2023/12/03 10:31:03;;;;;;;3.67;2.20;;;;;;;6.07;100.00;94407.75;5051082;28;20211;-76
2023/12/03 10:33:30;;;;;;;5.78;2.13;;;;;;;6.09;100.00;94410.94;5050884;28;20567;-75
2023/12/03 10:36:03;;;;;;;2.33;1.92;;;;;;;6.46;100.00;94409.00;5050825;28;20239;-78
2023/12/03 10:38:37;;;;;;;2.85;1.90;;;;;;;6.56;100.00;94409.53;5041867;28;20230;-76
2023/12/03 10:41:09;;;;;;;3.38;2.33;;;;;;;6.30;100.00;94412.03;5046003;28;20314;-77
2023/12/03 10:43:38;;;;;;;2.78;1.52;;;;;;;6.30;100.00;94416.63;5047815;28;20230;-75
2023/12/03 10:46:06;;;;;;;2.25;1.67;;;;;;;6.52;100.00;94413.16;5050270;28;20211;-75
2023/12/03 10:48:35;;;;;;;2.63;1.70;;;;;;;6.48;100.00;94412.16;5050901;28;20664;-77
2023/12/03 10:51:06;;;;;;;4.43;2.70;;;;;;;6.54;100.00;94416.34;5048733;28;20310;-77
2023/12/03 10:53:34;;;;;;;5.22;1.83;;;;;;;6.36;100.00;94429.66;5051004;28;20560;-75
2023/12/03 10:56:03;;;;;;;4.40;2.72;;;;;;;6.22;100.00;94425.44;5050218;28;20289;-74
2023/12/03 10:58:31;;;;;;;2.58;1.55;;;;;;;6.42;100.00;94428.41;5050301;28;20298;-75
2023/12/03 11:01:06;;;;;;;4.00;1.80;;;;;;;6.25;100.00;94428.31;5050893;28;20321;-73
2023/12/03 11:03:47;;;;;;;2.60;1.55;;;;;;;6.26;100.00;94437.19;5050872;28;20207;-73
2023/12/03 11:06:18;;;;;;;3.25;1.83;;;;;;;6.05;100.00;94426.88;5050515;28;20204;-72
2023/12/03 11:08:46;;;;;;;3.05;2.13;;;;;;;6.08;100.00;94430.88;5051069;28;20214;-73
2023/12/03 11:11:14;;;;;;;1.75;1.38;;;;;;;5.88;100.00;94420.53;5042235;28;20204;-75
2023/12/03 11:13:42;;;;;;;3.22;1.80;;;;;;;5.83;100.00;94417.97;5048026;28;20215;-74
2023/12/03 11:16:12;;;;;;;3.60;1.60;;;;;;;5.98;100.00;94414.97;5050059;28;20242;-74
2023/12/03 11:18:48;;;;;;;4.30;2.38;;;;;;;5.90;100.00;94418.38;5049524;28;20216;-73
2023/12/03 11:21:23;;;;;;;3.75;2.28;;;;;;;5.80;100.00;94430.13;5050314;28;20203;-73
2023/12/03 11:24:20;;;;;;;6.07;2.90;;;;;;;5.96;100.00;94444.03;5050357;28;20207;-75
2023/12/03 11:26:47;;;;;;;4.25;2.08;;;;;;;6.02;100.00;94437.44;5048311;28;20212;-73
2023/12/03 11:29:13;;;;;;;6.05;2.70;;;;;;;5.99;100.00;94443.44;5050080;28;20274;-73
2023/12/03 11:31:41;;;;;;;5.68;1.95;;;;;;;5.64;100.00;94448.44;5049835;28;20208;-72
2023/12/03 11:34:11;;;;;;;1.30;1.17;;;;;;;5.60;100.00;94452.81;5049345;28;20217;-75